sensor_id;sensor_type;location;lat;lon;timestamp;P1;durP1;ratioP1;P2;durP2;ratioP2
39218;SDS011;24934;52.752;6.964;2022-08-19T00:01:34;9.40;;;8.80;;
39218;SDS011;24934;52.752;6.964;2022-08-19T00:04:03;8.52;;;8.00;;
39218;SDS011;24934;52.752;6.964;2022-08-19T00:06:30;10.00;;;9.40;;
39218;SDS011;24934;52.752;6.964;2022-08-19T00:08:56;8.77;;;8.00;;
39218;SDS011;24934;52.752;6.964;2022-08-19T00:11:23;8.85;;;8.25;;
39218;SDS011;24934;52.752;6.964;2022-08-19T00:13:53;8.95;;;8.35;;
39218;SDS011;24934;52.752;6.964;2022-08-19T00:16:20;9.18;;;8.48;;
39218;SDS011;24934;52.752;6.964;2022-08-19T00:18:46;9.15;;;8.55;;
39218;SDS011;24934;52.752;6.964;2022-08-19T00:21:12;8.88;;;8.27;;
39218;SDS011;24934;52.752;6.964;2022-08-19T00:23:39;10.60;;;9.90;;
39218;SDS011;24934;52.752;6.964;2022-08-19T00:26:05;9.35;;;8.75;;
39218;SDS011;24934;52.752;6.964;2022-08-19T00:28:32;9.52;;;8.93;;
39218;SDS011;24934;52.752;6.964;2022-08-19T00:31:01;9.43;;;8.73;;
39218;SDS011;24934;52.752;6.964;2022-08-19T00:33:28;9.30;;;8.70;;
39218;SDS011;24934;52.752;6.964;2022-08-19T00:36:01;8.40;;;7.80;;
39218;SDS011;24934;52.752;6.964;2022-08-19T00:38:29;9.60;;;8.82;;
39218;SDS011;24934;52.752;6.964;2022-08-19T00:40:55;9.20;;;8.55;;
39218;SDS011;24934;52.752;6.964;2022-08-19T00:43:22;10.25;;;9.55;;
39218;SDS011;24934;52.752;6.964;2022-08-19T00:45:50;9.60;;;8.90;;
39218;SDS011;24934;52.752;6.964;2022-08-19T00:48:16;10.18;;;9.13;;
39218;SDS011;24934;52.752;6.964;2022-08-19T00:50:42;9.57;;;8.98;;
39218;SDS011;24934;52.752;6.964;2022-08-19T00:53:10;12.80;;;10.85;;
39218;SDS011;24934;52.752;6.964;2022-08-19T00:55:40;10.18;;;9.48;;
39218;SDS011;24934;52.752;6.964;2022-08-19T00:58:10;10.65;;;9.85;;
39218;SDS011;24934;52.752;6.964;2022-08-19T01:00:40;9.25;;;8.65;;
39218;SDS011;24934;52.752;6.964;2022-08-19T01:03:07;10.85;;;9.75;;
39218;SDS011;24934;52.752;6.964;2022-08-19T01:05:35;10.90;;;9.95;;
39218;SDS011;24934;52.752;6.964;2022-08-19T01:08:03;9.20;;;8.60;;
39218;SDS011;24934;52.752;6.964;2022-08-19T01:10:31;9.32;;;8.73;;
39218;SDS011;24934;52.752;6.964;2022-08-19T01:13:00;9.95;;;9.25;;
39218;SDS011;24934;52.752;6.964;2022-08-19T01:15:29;10.73;;;10.02;;
39218;SDS011;24934;52.752;6.964;2022-08-19T01:18:01;9.65;;;9.05;;
39218;SDS011;24934;52.752;6.964;2022-08-19T01:20:31;7.80;;;7.30;;
39218;SDS011;24934;52.752;6.964;2022-08-19T01:22:58;9.40;;;8.80;;
39218;SDS011;24934;52.752;6.964;2022-08-19T01:25:25;8.00;;;7.43;;
39218;SDS011;24934;52.752;6.964;2022-08-19T01:28:05;10.00;;;9.30;;
39218;SDS011;24934;52.752;6.964;2022-08-19T01:30:33;9.30;;;8.70;;
39218;SDS011;24934;52.752;6.964;2022-08-19T01:33:01;9.73;;;9.13;;
39218;SDS011;24934;52.752;6.964;2022-08-19T01:35:30;8.43;;;7.82;;
39218;SDS011;24934;52.752;6.964;2022-08-19T01:38:01;8.75;;;8.15;;
39218;SDS011;24934;52.752;6.964;2022-08-19T01:40:32;8.65;;;8.10;;
39218;SDS011;24934;52.752;6.964;2022-08-19T01:43:00;9.00;;;8.20;;
39218;SDS011;24934;52.752;6.964;2022-08-19T01:45:28;8.70;;;8.10;;
39218;SDS011;24934;52.752;6.964;2022-08-19T01:47:56;9.68;;;9.00;;
39218;SDS011;24934;52.752;6.964;2022-08-19T01:50:23;10.18;;;9.48;;
39218;SDS011;24934;52.752;6.964;2022-08-19T01:52:48;11.35;;;9.98;;
39218;SDS011;24934;52.752;6.964;2022-08-19T01:55:16;10.35;;;9.68;;
39218;SDS011;24934;52.752;6.964;2022-08-19T01:57:44;9.75;;;9.05;;
39218;SDS011;24934;52.752;6.964;2022-08-19T02:00:17;9.90;;;9.30;;
39218;SDS011;24934;52.752;6.964;2022-08-19T02:02:44;8.82;;;8.25;;
39218;SDS011;24934;52.752;6.964;2022-08-19T02:05:10;9.23;;;8.73;;
39218;SDS011;24934;52.752;6.964;2022-08-19T02:07:38;9.75;;;9.13;;
39218;SDS011;24934;52.752;6.964;2022-08-19T02:10:05;9.60;;;8.90;;
39218;SDS011;24934;52.752;6.964;2022-08-19T02:12:33;9.35;;;8.65;;
39218;SDS011;24934;52.752;6.964;2022-08-19T02:15:00;8.65;;;8.15;;
39218;SDS011;24934;52.752;6.964;2022-08-19T02:17:27;9.95;;;9.13;;
39218;SDS011;24934;52.752;6.964;2022-08-19T02:19:53;9.43;;;8.82;;
39218;SDS011;24934;52.752;6.964;2022-08-19T02:22:20;8.88;;;8.32;;
39218;SDS011;24934;52.752;6.964;2022-08-19T02:24:46;10.80;;;10.00;;
39218;SDS011;24934;52.752;6.964;2022-08-19T02:27:13;8.27;;;7.78;;
39218;SDS011;24934;52.752;6.964;2022-08-19T02:29:39;10.05;;;9.27;;
39218;SDS011;24934;52.752;6.964;2022-08-19T02:32:04;9.23;;;8.63;;
39218;SDS011;24934;52.752;6.964;2022-08-19T02:34:30;8.82;;;8.23;;
39218;SDS011;24934;52.752;6.964;2022-08-19T02:36:56;9.45;;;8.88;;
39218;SDS011;24934;52.752;6.964;2022-08-19T02:39:21;10.15;;;9.40;;
39218;SDS011;24934;52.752;6.964;2022-08-19T02:41:47;9.23;;;8.57;;
39218;SDS011;24934;52.752;6.964;2022-08-19T02:44:13;9.43;;;8.82;;
39218;SDS011;24934;52.752;6.964;2022-08-19T02:46:39;9.13;;;8.43;;
39218;SDS011;24934;52.752;6.964;2022-08-19T02:49:05;9.18;;;8.52;;
39218;SDS011;24934;52.752;6.964;2022-08-19T02:51:37;9.00;;;8.40;;
39218;SDS011;24934;52.752;6.964;2022-08-19T02:54:06;9.27;;;8.45;;
39218;SDS011;24934;52.752;6.964;2022-08-19T02:56:34;9.02;;;8.43;;
39218;SDS011;24934;52.752;6.964;2022-08-19T02:59:01;8.00;;;7.50;;
39218;SDS011;24934;52.752;6.964;2022-08-19T03:01:32;8.23;;;7.72;;
39218;SDS011;24934;52.752;6.964;2022-08-19T03:04:02;8.38;;;7.82;;
39218;SDS011;24934;52.752;6.964;2022-08-19T03:06:29;8.70;;;8.20;;
39218;SDS011;24934;52.752;6.964;2022-08-19T03:08:55;8.18;;;7.68;;
39218;SDS011;24934;52.752;6.964;2022-08-19T03:11:23;8.68;;;8.07;;
39218;SDS011;24934;52.752;6.964;2022-08-19T03:13:53;8.13;;;7.63;;
39218;SDS011;24934;52.752;6.964;2022-08-19T03:16:19;9.65;;;9.02;;
39218;SDS011;24934;52.752;6.964;2022-08-19T03:18:47;9.00;;;8.40;;
39218;SDS011;24934;52.752;6.964;2022-08-19T03:21:17;9.75;;;9.07;;
39218;SDS011;24934;52.752;6.964;2022-08-19T03:23:46;8.00;;;7.50;;
39218;SDS011;24934;52.752;6.964;2022-08-19T03:26:11;9.60;;;8.93;;
39218;SDS011;24934;52.752;6.964;2022-08-19T03:28:39;8.85;;;8.02;;
39218;SDS011;24934;52.752;6.964;2022-08-19T03:31:07;9.23;;;8.60;;
39218;SDS011;24934;52.752;6.964;2022-08-19T03:33:36;9.57;;;8.98;;
39218;SDS011;24934;52.752;6.964;2022-08-19T03:38:36;10.40;;;9.70;;
39218;SDS011;24934;52.752;6.964;2022-08-19T03:41:05;9.18;;;8.57;;
39218;SDS011;24934;52.752;6.964;2022-08-19T03:43:35;9.30;;;8.63;;
39218;SDS011;24934;52.752;6.964;2022-08-19T03:46:03;9.25;;;8.55;;
39218;SDS011;24934;52.752;6.964;2022-08-19T03:48:31;8.63;;;8.13;;
39218;SDS011;24934;52.752;6.964;2022-08-19T03:50:58;9.02;;;8.43;;
39218;SDS011;24934;52.752;6.964;2022-08-19T03:53:25;10.65;;;9.75;;
39218;SDS011;24934;52.752;6.964;2022-08-19T03:55:53;10.00;;;9.30;;
39218;SDS011;24934;52.752;6.964;2022-08-19T03:58:20;10.02;;;9.32;;
39218;SDS011;24934;52.752;6.964;2022-08-19T04:00:46;9.35;;;8.52;;
39218;SDS011;24934;52.752;6.964;2022-08-19T04:03:12;11.30;;;10.20;;
39218;SDS011;24934;52.752;6.964;2022-08-19T04:05:37;11.98;;;11.00;;
39218;SDS011;24934;52.752;6.964;2022-08-19T04:08:03;11.65;;;10.02;;
39218;SDS011;24934;52.752;6.964;2022-08-19T04:10:31;8.20;;;7.60;;
39218;SDS011;24934;52.752;6.964;2022-08-19T04:13:01;9.77;;;9.07;;
39218;SDS011;24934;52.752;6.964;2022-08-19T04:15:28;8.88;;;8.32;;
39218;SDS011;24934;52.752;6.964;2022-08-19T04:17:58;9.35;;;8.75;;
39218;SDS011;24934;52.752;6.964;2022-08-19T04:20:23;9.20;;;8.60;;
39218;SDS011;24934;52.752;6.964;2022-08-19T04:22:49;10.15;;;9.45;;
39218;SDS011;24934;52.752;6.964;2022-08-19T04:25:15;9.45;;;8.85;;
39218;SDS011;24934;52.752;6.964;2022-08-19T04:27:40;10.05;;;9.43;;
39218;SDS011;24934;52.752;6.964;2022-08-19T04:30:08;10.13;;;9.43;;
39218;SDS011;24934;52.752;6.964;2022-08-19T04:32:34;10.55;;;9.88;;
39218;SDS011;24934;52.752;6.964;2022-08-19T04:35:00;10.68;;;9.98;;
39218;SDS011;24934;52.752;6.964;2022-08-19T04:37:26;10.77;;;9.88;;
39218;SDS011;24934;52.752;6.964;2022-08-19T04:39:56;10.10;;;9.40;;
39218;SDS011;24934;52.752;6.964;2022-08-19T04:42:40;11.20;;;10.50;;
39218;SDS011;24934;52.752;6.964;2022-08-19T04:45:08;9.93;;;9.32;;
39218;SDS011;24934;52.752;6.964;2022-08-19T04:47:36;10.18;;;9.48;;
39218;SDS011;24934;52.752;6.964;2022-08-19T04:50:03;9.82;;;9.23;;
39218;SDS011;24934;52.752;6.964;2022-08-19T04:52:29;11.88;;;11.07;;
39218;SDS011;24934;52.752;6.964;2022-08-19T04:54:56;11.60;;;10.80;;
39218;SDS011;24934;52.752;6.964;2022-08-19T04:57:22;12.10;;;11.20;;
39218;SDS011;24934;52.752;6.964;2022-08-19T04:59:47;12.52;;;11.63;;
39218;SDS011;24934;52.752;6.964;2022-08-19T05:02:13;13.65;;;12.55;;
39218;SDS011;24934;52.752;6.964;2022-08-19T05:04:39;12.13;;;11.23;;
39218;SDS011;24934;52.752;6.964;2022-08-19T05:07:05;11.80;;;11.00;;
39218;SDS011;24934;52.752;6.964;2022-08-19T05:09:34;10.38;;;9.70;;
39218;SDS011;24934;52.752;6.964;2022-08-19T05:12:00;11.95;;;11.15;;
39218;SDS011;24934;52.752;6.964;2022-08-19T05:14:26;12.27;;;11.45;;
39218;SDS011;24934;52.752;6.964;2022-08-19T05:16:52;14.63;;;12.40;;
39218;SDS011;24934;52.752;6.964;2022-08-19T05:19:17;13.23;;;12.23;;
39218;SDS011;24934;52.752;6.964;2022-08-19T05:22:09;14.40;;;13.30;;
39218;SDS011;24934;52.752;6.964;2022-08-19T05:24:54;12.63;;;11.82;;
39218;SDS011;24934;52.752;6.964;2022-08-19T05:27:20;14.95;;;13.77;;
39218;SDS011;24934;52.752;6.964;2022-08-19T05:29:45;13.32;;;12.43;;
39218;SDS011;24934;52.752;6.964;2022-08-19T05:32:11;13.45;;;12.45;;
39218;SDS011;24934;52.752;6.964;2022-08-19T05:34:40;13.25;;;12.35;;
39218;SDS011;24934;52.752;6.964;2022-08-19T05:37:06;13.38;;;12.48;;
39218;SDS011;24934;52.752;6.964;2022-08-19T05:39:33;15.25;;;14.05;;
39218;SDS011;24934;52.752;6.964;2022-08-19T05:42:04;14.27;;;13.18;;
39218;SDS011;24934;52.752;6.964;2022-08-19T05:44:32;14.68;;;13.50;;
39218;SDS011;24934;52.752;6.964;2022-08-19T05:46:59;14.27;;;13.10;;
39218;SDS011;24934;52.752;6.964;2022-08-19T05:49:30;13.45;;;12.45;;
39218;SDS011;24934;52.752;6.964;2022-08-19T05:52:02;13.50;;;12.50;;
39218;SDS011;24934;52.752;6.964;2022-08-19T05:54:32;13.68;;;12.55;;
39218;SDS011;24934;52.752;6.964;2022-08-19T05:56:59;12.90;;;12.00;;
39218;SDS011;24934;52.752;6.964;2022-08-19T05:59:28;13.40;;;12.40;;
39218;SDS011;24934;52.752;6.964;2022-08-19T06:01:54;14.00;;;12.93;;
39218;SDS011;24934;52.752;6.964;2022-08-19T06:04:21;13.27;;;12.38;;
39218;SDS011;24934;52.752;6.964;2022-08-19T06:06:48;13.98;;;12.77;;
39218;SDS011;24934;52.752;6.964;2022-08-19T06:09:16;12.70;;;11.82;;
39218;SDS011;24934;52.752;6.964;2022-08-19T06:11:44;12.90;;;11.98;;
39218;SDS011;24934;52.752;6.964;2022-08-19T06:14:17;13.50;;;12.50;;
39218;SDS011;24934;52.752;6.964;2022-08-19T06:16:44;14.35;;;13.05;;
39218;SDS011;24934;52.752;6.964;2022-08-19T06:19:12;13.55;;;12.55;;
39218;SDS011;24934;52.752;6.964;2022-08-19T06:21:42;13.27;;;12.38;;
39218;SDS011;24934;52.752;6.964;2022-08-19T06:24:10;14.32;;;13.13;;
39218;SDS011;24934;52.752;6.964;2022-08-19T06:26:38;14.07;;;13.00;;
39218;SDS011;24934;52.752;6.964;2022-08-19T06:29:05;15.18;;;12.48;;
39218;SDS011;24934;52.752;6.964;2022-08-19T06:31:33;13.05;;;12.05;;
39218;SDS011;24934;52.752;6.964;2022-08-19T06:34:06;13.65;;;12.65;;
39218;SDS011;24934;52.752;6.964;2022-08-19T06:36:33;12.45;;;11.30;;
39218;SDS011;24934;52.752;6.964;2022-08-19T06:39:13;12.25;;;11.40;;
39218;SDS011;24934;52.752;6.964;2022-08-19T06:41:42;12.57;;;11.68;;
39218;SDS011;24934;52.752;6.964;2022-08-19T06:44:09;14.00;;;12.80;;
39218;SDS011;24934;52.752;6.964;2022-08-19T06:46:36;13.65;;;12.68;;
39218;SDS011;24934;52.752;6.964;2022-08-19T06:49:06;13.82;;;12.82;;
39218;SDS011;24934;52.752;6.964;2022-08-19T06:51:33;12.68;;;11.77;;
39218;SDS011;24934;52.752;6.964;2022-08-19T06:53:59;13.68;;;12.48;;
39218;SDS011;24934;52.752;6.964;2022-08-19T06:56:31;12.80;;;11.80;;
39218;SDS011;24934;52.752;6.964;2022-08-19T06:59:03;13.05;;;11.95;;
39218;SDS011;24934;52.752;6.964;2022-08-19T07:01:35;14.15;;;12.68;;
39218;SDS011;24934;52.752;6.964;2022-08-19T07:04:02;13.63;;;12.63;;
39218;SDS011;24934;52.752;6.964;2022-08-19T07:06:29;14.07;;;12.88;;
39218;SDS011;24934;52.752;6.964;2022-08-19T07:08:56;13.98;;;12.85;;
39218;SDS011;24934;52.752;6.964;2022-08-19T07:11:23;12.27;;;11.02;;
39218;SDS011;24934;52.752;6.964;2022-08-19T07:13:49;12.32;;;11.43;;
39218;SDS011;24934;52.752;6.964;2022-08-19T07:16:16;12.60;;;11.60;;
39218;SDS011;24934;52.752;6.964;2022-08-19T07:18:47;12.77;;;11.68;;
39218;SDS011;24934;52.752;6.964;2022-08-19T07:21:16;13.35;;;12.38;;
39218;SDS011;24934;52.752;6.964;2022-08-19T07:23:43;13.23;;;12.23;;
39218;SDS011;24934;52.752;6.964;2022-08-19T07:26:11;13.65;;;12.32;;
39218;SDS011;24934;52.752;6.964;2022-08-19T07:28:38;13.18;;;12.13;;
39218;SDS011;24934;52.752;6.964;2022-08-19T07:31:05;16.45;;;11.23;;
39218;SDS011;24934;52.752;6.964;2022-08-19T07:33:32;12.15;;;11.20;;
39218;SDS011;24934;52.752;6.964;2022-08-19T07:36:01;11.93;;;11.10;;
39218;SDS011;24934;52.752;6.964;2022-08-19T07:38:31;11.82;;;11.02;;
39218;SDS011;24934;52.752;6.964;2022-08-19T07:40:57;31.40;;;11.18;;
39218;SDS011;24934;52.752;6.964;2022-08-19T07:43:23;11.88;;;10.98;;
39218;SDS011;24934;52.752;6.964;2022-08-19T07:45:51;11.75;;;10.95;;
39218;SDS011;24934;52.752;6.964;2022-08-19T07:48:21;10.55;;;9.75;;
39218;SDS011;24934;52.752;6.964;2022-08-19T07:50:58;11.02;;;10.23;;
39218;SDS011;24934;52.752;6.964;2022-08-19T07:53:29;10.45;;;9.75;;
39218;SDS011;24934;52.752;6.964;2022-08-19T07:55:56;10.27;;;9.48;;
39218;SDS011;24934;52.752;6.964;2022-08-19T07:58:29;11.77;;;10.88;;
39218;SDS011;24934;52.752;6.964;2022-08-19T08:00:59;10.77;;;9.95;;
39218;SDS011;24934;52.752;6.964;2022-08-19T08:03:26;10.02;;;9.32;;
39218;SDS011;24934;52.752;6.964;2022-08-19T08:06:12;10.38;;;9.65;;
39218;SDS011;24934;52.752;6.964;2022-08-19T08:08:57;11.40;;;10.50;;
39218;SDS011;24934;52.752;6.964;2022-08-19T08:11:47;10.40;;;9.60;;
39218;SDS011;24934;52.752;6.964;2022-08-19T08:14:23;9.57;;;8.88;;
39218;SDS011;24934;52.752;6.964;2022-08-19T08:17:00;8.70;;;8.20;;
39218;SDS011;24934;52.752;6.964;2022-08-19T08:19:26;10.40;;;9.70;;
39218;SDS011;24934;52.752;6.964;2022-08-19T08:21:54;11.60;;;10.70;;
39218;SDS011;24934;52.752;6.964;2022-08-19T08:24:21;11.23;;;10.32;;
39218;SDS011;24934;52.752;6.964;2022-08-19T08:26:47;11.95;;;11.05;;
39218;SDS011;24934;52.752;6.964;2022-08-19T08:29:13;11.00;;;10.25;;
39218;SDS011;24934;52.752;6.964;2022-08-19T08:31:40;11.90;;;11.00;;
39218;SDS011;24934;52.752;6.964;2022-08-19T08:34:09;10.65;;;9.95;;
39218;SDS011;24934;52.752;6.964;2022-08-19T08:36:36;12.35;;;11.43;;
39218;SDS011;24934;52.752;6.964;2022-08-19T08:39:06;11.45;;;10.65;;
39218;SDS011;24934;52.752;6.964;2022-08-19T08:43:59;10.88;;;9.90;;
39218;SDS011;24934;52.752;6.964;2022-08-19T08:46:28;12.52;;;10.05;;
39218;SDS011;24934;52.752;6.964;2022-08-19T08:51:41;10.90;;;10.10;;
39218;SDS011;24934;52.752;6.964;2022-08-19T08:54:17;12.63;;;10.65;;
39218;SDS011;24934;52.752;6.964;2022-08-19T08:56:48;9.65;;;8.95;;
39218;SDS011;24934;52.752;6.964;2022-08-19T08:59:21;11.27;;;10.48;;
39218;SDS011;24934;52.752;6.964;2022-08-19T09:01:51;11.60;;;10.70;;
39218;SDS011;24934;52.752;6.964;2022-08-19T09:04:17;10.45;;;9.75;;
39218;SDS011;24934;52.752;6.964;2022-08-19T09:06:51;11.13;;;10.32;;
39218;SDS011;24934;52.752;6.964;2022-08-19T09:09:34;10.35;;;9.55;;
39218;SDS011;24934;52.752;6.964;2022-08-19T09:17:06;10.60;;;9.80;;
39218;SDS011;24934;52.752;6.964;2022-08-19T09:19:36;10.63;;;9.85;;
39218;SDS011;24934;52.752;6.964;2022-08-19T09:22:16;11.23;;;10.35;;
39218;SDS011;24934;52.752;6.964;2022-08-19T09:24:42;10.27;;;9.38;;
39218;SDS011;24934;52.752;6.964;2022-08-19T09:27:07;10.25;;;9.55;;
39218;SDS011;24934;52.752;6.964;2022-08-19T09:29:33;10.82;;;10.05;;
39218;SDS011;24934;52.752;6.964;2022-08-19T09:31:59;10.48;;;9.77;;
39218;SDS011;24934;52.752;6.964;2022-08-19T09:34:26;9.00;;;8.40;;
39218;SDS011;24934;52.752;6.964;2022-08-19T09:36:54;9.55;;;8.70;;
39218;SDS011;24934;52.752;6.964;2022-08-19T09:39:23;9.55;;;8.65;;
39218;SDS011;24934;52.752;6.964;2022-08-19T09:41:48;9.77;;;8.98;;
39218;SDS011;24934;52.752;6.964;2022-08-19T09:44:18;8.52;;;7.97;;
39218;SDS011;24934;52.752;6.964;2022-08-19T09:46:45;9.70;;;8.70;;
39218;SDS011;24934;52.752;6.964;2022-08-19T09:49:14;8.23;;;7.63;;
39218;SDS011;24934;52.752;6.964;2022-08-19T09:51:42;9.15;;;8.55;;
39218;SDS011;24934;52.752;6.964;2022-08-19T09:54:07;8.25;;;7.65;;
39218;SDS011;24934;52.752;6.964;2022-08-19T09:56:33;9.20;;;8.55;;
39218;SDS011;24934;52.752;6.964;2022-08-19T09:59:00;8.80;;;8.25;;
39218;SDS011;24934;52.752;6.964;2022-08-19T10:01:28;8.85;;;8.25;;
39218;SDS011;24934;52.752;6.964;2022-08-19T10:03:55;8.93;;;8.32;;
39218;SDS011;24934;52.752;6.964;2022-08-19T10:06:23;9.10;;;8.50;;
39218;SDS011;24934;52.752;6.964;2022-08-19T10:08:50;9.68;;;8.98;;
39218;SDS011;24934;52.752;6.964;2022-08-19T10:11:17;8.93;;;8.25;;
39218;SDS011;24934;52.752;6.964;2022-08-19T10:13:44;8.60;;;7.97;;
39218;SDS011;24934;52.752;6.964;2022-08-19T10:16:12;8.65;;;8.05;;
39218;SDS011;24934;52.752;6.964;2022-08-19T10:18:40;8.63;;;7.93;;
39218;SDS011;24934;52.752;6.964;2022-08-19T10:21:11;8.82;;;8.23;;
39218;SDS011;24934;52.752;6.964;2022-08-19T10:23:39;9.80;;;9.02;;
39218;SDS011;24934;52.752;6.964;2022-08-19T10:26:09;9.13;;;8.48;;
39218;SDS011;24934;52.752;6.964;2022-08-19T10:28:35;9.13;;;8.32;;
39218;SDS011;24934;52.752;6.964;2022-08-19T10:31:10;8.85;;;8.25;;
39218;SDS011;24934;52.752;6.964;2022-08-19T10:33:42;9.05;;;8.43;;
39218;SDS011;24934;52.752;6.964;2022-08-19T10:36:17;10.20;;;9.30;;
39218;SDS011;24934;52.752;6.964;2022-08-19T10:38:44;9.05;;;8.25;;
39218;SDS011;24934;52.752;6.964;2022-08-19T10:41:15;8.45;;;7.85;;
39218;SDS011;24934;52.752;6.964;2022-08-19T10:43:43;8.93;;;8.13;;
39218;SDS011;24934;52.752;6.964;2022-08-19T10:46:11;8.75;;;8.05;;
39218;SDS011;24934;52.752;6.964;2022-08-19T10:48:38;8.45;;;7.85;;
39218;SDS011;24934;52.752;6.964;2022-08-19T10:51:04;8.75;;;8.05;;
39218;SDS011;24934;52.752;6.964;2022-08-19T10:53:49;8.63;;;8.02;;
39218;SDS011;24934;52.752;6.964;2022-08-19T10:56:17;8.68;;;7.88;;
39218;SDS011;24934;52.752;6.964;2022-08-19T10:59:02;8.95;;;8.25;;
39218;SDS011;24934;52.752;6.964;2022-08-19T11:01:30;9.27;;;8.48;;
39218;SDS011;24934;52.752;6.964;2022-08-19T11:04:00;8.00;;;7.50;;
39218;SDS011;24934;52.752;6.964;2022-08-19T11:06:27;8.38;;;7.78;;
39218;SDS011;24934;52.752;6.964;2022-08-19T11:08:54;7.95;;;7.35;;
39218;SDS011;24934;52.752;6.964;2022-08-19T11:11:23;7.65;;;7.05;;
39218;SDS011;24934;52.752;6.964;2022-08-19T11:13:53;8.18;;;7.57;;
39218;SDS011;24934;52.752;6.964;2022-08-19T11:16:20;9.18;;;8.38;;
39218;SDS011;24934;52.752;6.964;2022-08-19T11:18:48;6.95;;;6.35;;
39218;SDS011;24934;52.752;6.964;2022-08-19T11:23:57;7.70;;;7.10;;
39218;SDS011;24934;52.752;6.964;2022-08-19T11:26:28;6.80;;;6.30;;
39218;SDS011;24934;52.752;6.964;2022-08-19T11:28:55;8.23;;;7.72;;
39218;SDS011;24934;52.752;6.964;2022-08-19T11:31:23;7.78;;;7.18;;
39218;SDS011;24934;52.752;6.964;2022-08-19T11:33:52;7.63;;;7.05;;
39218;SDS011;24934;52.752;6.964;2022-08-19T11:36:19;8.40;;;7.80;;
39218;SDS011;24934;52.752;6.964;2022-08-19T11:38:46;8.45;;;7.70;;
39218;SDS011;24934;52.752;6.964;2022-08-19T11:41:14;7.80;;;7.30;;
39218;SDS011;24934;52.752;6.964;2022-08-19T11:43:41;7.40;;;6.90;;
39218;SDS011;24934;52.752;6.964;2022-08-19T11:46:08;7.60;;;7.10;;
39218;SDS011;24934;52.752;6.964;2022-08-19T11:48:35;7.40;;;6.82;;
39218;SDS011;24934;52.752;6.964;2022-08-19T11:51:06;7.68;;;7.07;;
39218;SDS011;24934;52.752;6.964;2022-08-19T11:53:37;8.15;;;7.65;;
39218;SDS011;24934;52.752;6.964;2022-08-19T11:56:03;8.13;;;7.63;;
39218;SDS011;24934;52.752;6.964;2022-08-19T11:58:30;7.55;;;6.97;;
39218;SDS011;24934;52.752;6.964;2022-08-19T12:00:55;8.30;;;7.70;;
39218;SDS011;24934;52.752;6.964;2022-08-19T12:03:24;6.80;;;6.40;;
39218;SDS011;24934;52.752;6.964;2022-08-19T12:05:50;7.72;;;7.22;;
39218;SDS011;24934;52.752;6.964;2022-08-19T12:08:17;8.40;;;7.70;;
39218;SDS011;24934;52.752;6.964;2022-08-19T12:10:43;6.25;;;5.75;;
39218;SDS011;24934;52.752;6.964;2022-08-19T12:13:10;8.20;;;7.60;;
39218;SDS011;24934;52.752;6.964;2022-08-19T12:15:40;7.95;;;7.35;;
39218;SDS011;24934;52.752;6.964;2022-08-19T12:18:06;7.00;;;6.45;;
39218;SDS011;24934;52.752;6.964;2022-08-19T12:20:37;6.40;;;5.97;;
39218;SDS011;24934;52.752;6.964;2022-08-19T12:23:05;6.78;;;6.30;;
39218;SDS011;24934;52.752;6.964;2022-08-19T12:25:31;5.85;;;5.45;;
39218;SDS011;24934;52.752;6.964;2022-08-19T12:27:57;8.40;;;7.82;;
39218;SDS011;24934;52.752;6.964;2022-08-19T12:30:23;7.20;;;6.70;;
39218;SDS011;24934;52.752;6.964;2022-08-19T12:32:49;7.47;;;6.93;;
39218;SDS011;24934;52.752;6.964;2022-08-19T12:35:16;8.25;;;7.68;;
39218;SDS011;24934;52.752;6.964;2022-08-19T12:37:45;8.02;;;7.45;;
39218;SDS011;24934;52.752;6.964;2022-08-19T12:40:13;8.45;;;7.85;;
39218;SDS011;24934;52.752;6.964;2022-08-19T12:42:40;8.13;;;7.60;;
39218;SDS011;24934;52.752;6.964;2022-08-19T12:45:09;8.02;;;7.53;;
39218;SDS011;24934;52.752;6.964;2022-08-19T12:47:37;7.40;;;6.90;;
39218;SDS011;24934;52.752;6.964;2022-08-19T12:50:03;8.73;;;8.02;;
39218;SDS011;24934;52.752;6.964;2022-08-19T12:52:31;8.65;;;8.05;;
39218;SDS011;24934;52.752;6.964;2022-08-19T12:54:57;7.40;;;6.90;;
39218;SDS011;24934;52.752;6.964;2022-08-19T12:57:27;7.80;;;7.10;;
39218;SDS011;24934;52.752;6.964;2022-08-19T12:59:53;7.25;;;6.60;;
39218;SDS011;24934;52.752;6.964;2022-08-19T13:02:19;6.53;;;5.95;;
39218;SDS011;24934;52.752;6.964;2022-08-19T13:04:45;6.80;;;6.28;;
39218;SDS011;24934;52.752;6.964;2022-08-19T13:07:11;6.20;;;5.72;;
39218;SDS011;24934;52.752;6.964;2022-08-19T13:09:37;7.80;;;7.20;;
39218;SDS011;24934;52.752;6.964;2022-08-19T13:12:03;8.68;;;8.02;;
39218;SDS011;24934;52.752;6.964;2022-08-19T13:14:32;8.30;;;7.70;;
39218;SDS011;24934;52.752;6.964;2022-08-19T13:17:07;8.02;;;7.53;;
39218;SDS011;24934;52.752;6.964;2022-08-19T13:19:35;7.57;;;7.07;;
39218;SDS011;24934;52.752;6.964;2022-08-19T13:22:01;7.60;;;7.10;;
39218;SDS011;24934;52.752;6.964;2022-08-19T13:24:29;8.35;;;7.75;;
39218;SDS011;24934;52.752;6.964;2022-08-19T13:26:55;7.40;;;6.90;;
39218;SDS011;24934;52.752;6.964;2022-08-19T13:29:20;8.80;;;6.93;;
39218;SDS011;24934;52.752;6.964;2022-08-19T13:32:08;6.50;;;6.10;;
39218;SDS011;24934;52.752;6.964;2022-08-19T13:34:55;6.88;;;6.38;;
39218;SDS011;24934;52.752;6.964;2022-08-19T13:37:21;8.93;;;6.00;;
39218;SDS011;24934;52.752;6.964;2022-08-19T13:40:06;6.70;;;6.30;;
39218;SDS011;24934;52.752;6.964;2022-08-19T13:42:42;8.05;;;7.45;;
39218;SDS011;24934;52.752;6.964;2022-08-19T13:45:11;6.75;;;6.35;;
39218;SDS011;24934;52.752;6.964;2022-08-19T13:47:37;7.90;;;7.40;;
39218;SDS011;24934;52.752;6.964;2022-08-19T13:50:13;7.40;;;6.80;;
39218;SDS011;24934;52.752;6.964;2022-08-19T13:52:41;6.72;;;6.30;;
39218;SDS011;24934;52.752;6.964;2022-08-19T13:55:08;7.07;;;6.57;;
39218;SDS011;24934;52.752;6.964;2022-08-19T13:57:36;5.90;;;5.60;;
39218;SDS011;24934;52.752;6.964;2022-08-19T14:00:04;6.50;;;6.10;;
39218;SDS011;24934;52.752;6.964;2022-08-19T14:02:31;6.00;;;5.63;;
39218;SDS011;24934;52.752;6.964;2022-08-19T14:04:57;6.18;;;5.78;;
39218;SDS011;24934;52.752;6.964;2022-08-19T14:07:23;6.32;;;5.82;;
39218;SDS011;24934;52.752;6.964;2022-08-19T14:09:49;6.15;;;5.75;;
39218;SDS011;24934;52.752;6.964;2022-08-19T14:12:18;6.03;;;5.63;;
39218;SDS011;24934;52.752;6.964;2022-08-19T14:14:45;6.00;;;5.60;;
39218;SDS011;24934;52.752;6.964;2022-08-19T14:17:11;5.63;;;5.22;;
39218;SDS011;24934;52.752;6.964;2022-08-19T14:19:37;5.30;;;4.90;;
39218;SDS011;24934;52.752;6.964;2022-08-19T14:22:02;5.68;;;5.18;;
39218;SDS011;24934;52.752;6.964;2022-08-19T14:24:29;5.30;;;4.82;;
39218;SDS011;24934;52.752;6.964;2022-08-19T14:26:54;5.65;;;5.25;;
39218;SDS011;24934;52.752;6.964;2022-08-19T14:29:22;5.70;;;5.28;;
39218;SDS011;24934;52.752;6.964;2022-08-19T14:31:47;6.05;;;5.63;;
39218;SDS011;24934;52.752;6.964;2022-08-19T14:34:13;6.22;;;5.82;;
39218;SDS011;24934;52.752;6.964;2022-08-19T14:36:38;5.88;;;5.47;;
39218;SDS011;24934;52.752;6.964;2022-08-19T14:39:04;6.35;;;5.82;;
39218;SDS011;24934;52.752;6.964;2022-08-19T14:41:30;6.63;;;6.22;;
39218;SDS011;24934;52.752;6.964;2022-08-19T14:43:56;7.00;;;6.50;;
39218;SDS011;24934;52.752;6.964;2022-08-19T14:46:27;7.50;;;6.80;;
39218;SDS011;24934;52.752;6.964;2022-08-19T14:48:53;5.50;;;5.10;;
39218;SDS011;24934;52.752;6.964;2022-08-19T14:51:20;5.30;;;5.00;;
39218;SDS011;24934;52.752;6.964;2022-08-19T14:53:50;5.03;;;4.72;;
39218;SDS011;24934;52.752;6.964;2022-08-19T14:56:21;5.00;;;4.70;;
39218;SDS011;24934;52.752;6.964;2022-08-19T14:58:48;4.70;;;4.40;;
39218;SDS011;24934;52.752;6.964;2022-08-19T15:01:18;6.93;;;5.18;;